createdAt,value
2022-09-22T00:00:39.128Z,16.00
2022-09-22T00:03:05.728Z,15.63
2022-09-22T00:05:32.281Z,17.30
2022-09-22T00:07:58.903Z,15.63
2022-09-22T00:10:25.469Z,16.90
2022-09-22T00:12:53.154Z,18.93
2022-09-22T00:15:19.867Z,16.90
2022-09-22T00:17:46.423Z,17.03
2022-09-22T00:20:13.884Z,16.63
2022-09-22T00:22:40.745Z,20.33
2022-09-22T00:25:08.281Z,17.00
2022-09-22T00:27:34.898Z,19.20
2022-09-22T00:30:01.619Z,18.80
2022-09-22T00:32:28.283Z,17.73
2022-09-22T00:34:54.829Z,19.53
2022-09-22T00:37:21.412Z,19.17
2022-09-22T00:39:48.020Z,18.90
2022-09-22T00:42:14.525Z,18.23
2022-09-22T00:44:41.968Z,19.23
2022-09-22T00:47:25.946Z,19.50
2022-09-22T00:50:10.721Z,18.50
2022-09-22T00:52:47.620Z,21.43
2022-09-22T00:55:23.234Z,20.33
2022-09-22T00:57:50.770Z,21.47
2022-09-22T01:00:17.637Z,23.00
2022-09-22T01:02:47.011Z,21.73
2022-09-22T01:05:13.563Z,20.30
2022-09-22T01:07:40.098Z,20.40
2022-09-22T01:10:07.566Z,19.40
2022-09-22T01:12:35.569Z,20.47
2022-09-22T01:15:26.142Z,19.13
2022-09-22T01:17:58.861Z,15.90
2022-09-22T01:20:33.086Z,15.10
2022-09-22T01:23:18.546Z,15.60
2022-09-22T01:25:45.193Z,16.90
2022-09-22T01:28:20.913Z,16.37
2022-09-22T01:31:00.104Z,17.07
2022-09-22T01:33:33.499Z,15.00
2022-09-22T01:36:08.542Z,16.93
2022-09-22T01:38:50.342Z,16.90
2022-09-22T01:41:24.439Z,14.90
2022-09-22T01:43:56.637Z,16.50
2022-09-22T01:46:39.063Z,15.40
2022-09-22T01:49:08.261Z,14.10
2022-09-22T01:51:38.098Z,14.00
2022-09-22T01:54:07.805Z,15.00
2022-09-22T01:56:34.804Z,13.87
2022-09-22T01:59:03.287Z,14.87
2022-09-22T02:01:41.943Z,13.60
2022-09-22T02:04:16.466Z,16.80
2022-09-22T02:06:45.007Z,14.60
2022-09-22T02:09:12.876Z,16.73
2022-09-22T02:11:39.953Z,15.90
2022-09-22T02:14:06.763Z,17.40
2022-09-22T02:16:34.061Z,15.33
2022-09-22T02:19:12.916Z,16.20
2022-09-22T02:21:40.786Z,15.70
2022-09-22T02:24:07.969Z,16.37
2022-09-22T02:26:36.346Z,17.10
2022-09-22T02:29:05.191Z,18.70
2022-09-22T02:31:34.157Z,17.27
2022-09-22T02:34:01.502Z,15.27
2022-09-22T02:36:46.697Z,16.47
2022-09-22T02:39:34.817Z,17.27
2022-09-22T02:42:01.374Z,16.97
2022-09-22T02:44:32.013Z,15.33
2022-09-22T02:47:19.893Z,15.30
2022-09-22T02:49:49.399Z,17.80
2022-09-22T02:52:18.907Z,16.90
2022-09-22T02:54:45.511Z,18.17
2022-09-22T02:57:12.254Z,16.50
2022-09-22T02:59:38.913Z,17.67
2022-09-22T03:02:07.137Z,17.10
2022-09-22T03:04:33.872Z,17.50
2022-09-22T03:07:00.461Z,16.33
2022-09-22T03:09:27.020Z,16.23
2022-09-22T03:11:54.667Z,16.10
2022-09-22T03:14:21.287Z,14.13
2022-09-22T03:16:47.860Z,14.10
2022-09-22T03:19:14.561Z,16.37
2022-09-22T03:21:41.086Z,17.53
2022-09-22T03:24:07.638Z,18.27
2022-09-22T03:26:34.897Z,19.13
2022-09-22T03:29:01.468Z,20.77
2022-09-22T03:31:28.023Z,20.03
2022-09-22T03:33:54.552Z,19.70
2022-09-22T03:36:21.409Z,18.37
2022-09-22T03:38:47.933Z,17.67
2022-09-22T03:41:14.537Z,14.87
2022-09-22T03:43:41.069Z,16.70
2022-09-22T03:46:07.832Z,17.60
2022-09-22T03:48:34.534Z,16.47
2022-09-22T03:51:01.318Z,13.43
2022-09-22T03:53:27.923Z,14.57
2022-09-22T03:56:04.588Z,11.90
2022-09-22T03:58:31.362Z,13.77
2022-09-22T04:00:58.102Z,14.50
2022-09-22T04:03:24.679Z,13.67
2022-09-22T04:05:51.696Z,12.73
2022-09-22T04:08:18.323Z,14.50
2022-09-22T04:10:45.557Z,15.23
2022-09-22T04:13:12.794Z,15.70
2022-09-22T04:15:39.670Z,15.43
2022-09-22T04:18:06.523Z,14.80
2022-09-22T04:20:33.065Z,16.57
2022-09-22T04:22:59.804Z,15.97
2022-09-22T04:25:27.139Z,16.77
2022-09-22T04:27:53.680Z,20.13
2022-09-22T04:30:20.205Z,17.30
2022-09-22T04:32:46.716Z,19.70
2022-09-22T04:35:13.273Z,16.40
2022-09-22T04:37:39.822Z,18.73
2022-09-22T04:40:06.705Z,16.83
2022-09-22T04:42:33.280Z,17.60
2022-09-22T04:45:02.046Z,18.10
2022-09-22T04:47:29.377Z,19.07
2022-09-22T04:49:56.026Z,18.03
2022-09-22T04:52:22.654Z,18.40
2022-09-22T04:54:49.200Z,19.03
2022-09-22T04:57:20.221Z,19.17
2022-09-22T04:59:47.115Z,17.47
2022-09-22T05:02:13.691Z,16.40
2022-09-22T05:04:40.241Z,17.17
2022-09-22T05:07:06.812Z,16.53
2022-09-22T05:09:33.309Z,15.23
2022-09-22T05:12:01.304Z,16.13
2022-09-22T05:14:29.054Z,15.37
2022-09-22T05:16:55.725Z,16.03
2022-09-22T05:19:22.313Z,15.03
2022-09-22T05:21:48.867Z,14.50
2022-09-22T05:24:15.337Z,14.90
2022-09-22T05:26:42.057Z,15.50
2022-09-22T05:29:08.711Z,16.60
2022-09-22T05:31:35.344Z,15.43
2022-09-22T05:34:01.934Z,14.97
2022-09-22T05:36:28.481Z,18.67
2022-09-22T05:38:55.092Z,14.57
2022-09-22T05:41:21.693Z,13.30
2022-09-22T05:43:48.208Z,14.10
2022-09-22T05:46:14.858Z,12.30
2022-09-22T05:48:41.474Z,12.23
2022-09-22T05:51:08.008Z,10.07
2022-09-22T05:53:34.517Z,10.03
2022-09-22T05:56:01.189Z,9.47
2022-09-22T05:58:27.742Z,9.83
2022-09-22T06:00:58.343Z,7.50
2022-09-22T06:03:24.976Z,7.40
2022-09-22T06:05:51.582Z,7.60
2022-09-22T06:08:18.172Z,7.97
2022-09-22T06:10:45.382Z,6.80
2022-09-22T06:13:11.953Z,7.50
2022-09-22T06:15:38.865Z,6.93
2022-09-22T06:18:07.268Z,7.03
2022-09-22T06:20:34.952Z,6.10
2022-09-22T06:23:01.718Z,6.03
2022-09-22T06:25:28.260Z,6.30
2022-09-22T06:28:05.671Z,6.40
2022-09-22T06:30:36.054Z,6.23
2022-09-22T06:33:03.019Z,5.73
2022-09-22T06:35:37.606Z,6.10
2022-09-22T06:38:05.609Z,5.63
2022-09-22T06:40:38.352Z,5.87
2022-09-22T06:43:12.113Z,5.70
2022-09-22T06:45:41.089Z,7.13
2022-09-22T06:48:10.423Z,6.03
2022-09-22T06:50:38.161Z,4.80
2022-09-22T06:53:07.114Z,5.90
2022-09-22T06:55:34.094Z,5.70
2022-09-22T06:58:02.020Z,5.20
2022-09-22T07:00:31.349Z,5.37
2022-09-22T07:03:05.161Z,5.67
2022-09-22T07:05:32.312Z,6.50
2022-09-22T07:07:58.994Z,6.53
2022-09-22T07:10:25.582Z,5.40
2022-09-22T07:12:52.132Z,6.80
2022-09-22T07:15:18.649Z,6.40
2022-09-22T07:17:45.493Z,7.97
2022-09-22T07:20:12.791Z,7.03
2022-09-22T07:22:39.333Z,7.63
2022-09-22T07:25:07.769Z,7.17
2022-09-22T07:27:34.930Z,7.87
2022-09-22T07:30:01.537Z,8.23
2022-09-22T07:32:30.224Z,7.93
2022-09-22T07:34:57.879Z,6.83
2022-09-22T07:37:24.423Z,7.13
2022-09-22T07:39:51.003Z,6.67
2022-09-22T07:42:17.536Z,7.30
2022-09-22T07:45:02.680Z,6.80
2022-09-22T07:47:47.977Z,6.93
2022-09-22T07:50:16.699Z,6.67
2022-09-22T07:52:48.748Z,7.50
2022-09-22T07:55:15.268Z,6.27
2022-09-22T07:57:41.853Z,5.57
2022-09-22T08:00:08.815Z,6.77
2022-09-22T08:02:39.590Z,6.33
2022-09-22T08:05:06.924Z,5.90
2022-09-22T08:07:36.162Z,5.63
2022-09-22T08:10:02.777Z,4.93
2022-09-22T08:12:29.318Z,5.97
2022-09-22T08:14:58.347Z,4.80
2022-09-22T08:17:24.891Z,5.07
2022-09-22T08:19:51.666Z,6.53
2022-09-22T08:22:18.867Z,5.03
2022-09-22T08:24:45.812Z,5.20
2022-09-22T08:27:12.382Z,5.10
2022-09-22T08:29:38.906Z,6.73
2022-09-22T08:32:05.572Z,4.30
2022-09-22T08:34:32.088Z,5.50
2022-09-22T08:36:58.671Z,5.30
2022-09-22T08:39:25.213Z,5.40
2022-09-22T08:41:51.995Z,5.43
2022-09-22T08:44:22.921Z,5.10
2022-09-22T08:46:49.728Z,4.73
2022-09-22T08:49:43.240Z,5.90
2022-09-22T08:52:16.292Z,5.73
2022-09-22T08:54:43.707Z,3.73
2022-09-22T08:57:28.127Z,3.90
2022-09-22T08:59:54.659Z,5.00
2022-09-22T09:02:32.669Z,4.20
2022-09-22T09:05:19.164Z,5.60
2022-09-22T09:08:00.241Z,5.50
2022-09-22T09:10:45.628Z,6.27
2022-09-22T09:13:30.952Z,4.40
2022-09-22T09:16:06.918Z,3.53
2022-09-22T09:18:36.426Z,3.50
2022-09-22T09:21:04.118Z,2.30
2022-09-22T09:26:23.098Z,2.83
2022-09-22T09:28:53.367Z,2.07
2022-09-22T09:31:25.291Z,1.73
2022-09-22T09:33:56.641Z,1.83
2022-09-22T09:36:25.857Z,2.60
2022-09-22T09:38:54.402Z,2.30
2022-09-22T09:41:31.757Z,2.37
2022-09-22T09:44:02.639Z,1.90
2022-09-22T09:46:41.407Z,2.10
2022-09-22T09:49:14.964Z,1.70
2022-09-22T09:51:43.935Z,1.53
2022-09-22T09:54:16.766Z,1.50
2022-09-22T09:57:02.190Z,1.57
2022-09-22T09:59:47.536Z,2.33
2022-09-22T10:02:26.205Z,1.27
2022-09-22T10:04:53.927Z,1.13
2022-09-22T10:07:23.181Z,1.03
2022-09-22T10:09:50.893Z,2.20
2022-09-22T10:12:20.444Z,1.20
2022-09-22T10:14:51.627Z,1.00
2022-09-22T10:17:29.240Z,0.90
2022-09-22T10:20:16.431Z,0.80
2022-09-22T10:22:43.243Z,0.80
2022-09-22T10:25:19.490Z,0.97
2022-09-22T10:27:58.928Z,1.60
2022-09-22T10:30:25.774Z,1.07
2022-09-22T10:33:06.323Z,0.80
2022-09-22T10:35:36.302Z,0.90
2022-09-22T10:38:12.123Z,1.50
2022-09-22T10:40:40.051Z,1.30
2022-09-22T10:43:11.641Z,1.30
2022-09-22T10:45:50.828Z,0.97
2022-09-22T10:48:20.407Z,1.07
2022-09-22T10:50:46.913Z,1.13
2022-09-22T10:53:27.425Z,0.77
2022-09-22T10:56:05.711Z,0.90
2022-09-22T10:58:42.788Z,0.80
2022-09-22T11:01:18.757Z,0.90
2022-09-22T11:03:57.884Z,1.20
2022-09-22T11:06:58.449Z,1.20
2022-09-22T11:09:48.289Z,1.50
2022-09-22T11:12:17.884Z,1.73
2022-09-22T11:14:56.666Z,1.53
2022-09-22T11:17:26.437Z,1.43
2022-09-22T11:20:23.155Z,1.60
2022-09-22T11:22:55.527Z,2.03
2022-09-22T11:25:28.277Z,2.43
2022-09-22T11:28:12.910Z,3.20
2022-09-22T11:31:00.694Z,3.03
2022-09-22T11:33:39.847Z,2.67
2022-09-22T11:36:27.627Z,2.73
2022-09-22T11:39:00.677Z,2.10
2022-09-22T11:41:33.676Z,2.30
2022-09-22T11:44:20.621Z,2.90
2022-09-22T11:46:51.389Z,2.40
2022-09-22T11:49:30.253Z,2.30
2022-09-22T11:52:04.112Z,3.20
2022-09-22T11:54:49.590Z,2.63
2022-09-22T11:57:19.284Z,1.97
2022-09-22T11:59:59.384Z,1.90
2022-09-22T12:02:28.828Z,2.13
2022-09-22T12:04:59.378Z,2.70
2022-09-22T12:07:31.137Z,2.00
2022-09-22T12:10:02.817Z,2.10
2022-09-22T12:12:31.443Z,2.53
2022-09-22T12:15:14.513Z,2.47
2022-09-22T12:17:46.860Z,1.80
2022-09-22T12:20:33.608Z,1.80
2022-09-22T12:23:19.041Z,2.33
2022-09-22T12:25:54.388Z,2.20
2022-09-22T12:28:26.245Z,2.03
2022-09-22T12:30:56.066Z,1.43
2022-09-22T12:33:22.739Z,1.93
2022-09-22T12:35:55.885Z,1.40
2022-09-22T12:38:23.466Z,2.20
2022-09-22T12:40:51.493Z,2.70
2022-09-22T12:43:22.513Z,1.87
2022-09-22T12:45:49.698Z,1.87
2022-09-22T12:48:17.840Z,1.50
2022-09-22T12:50:45.021Z,2.43
2022-09-22T12:53:23.454Z,1.83
2022-09-22T12:55:54.012Z,2.30
2022-09-22T12:58:20.466Z,2.30
2022-09-22T13:00:50.882Z,1.40
2022-09-22T13:03:26.963Z,1.70
2022-09-22T13:05:54.632Z,1.90
2022-09-22T13:08:24.652Z,1.83
2022-09-22T13:10:56.579Z,1.10
2022-09-22T13:13:24.361Z,1.00
2022-09-22T13:15:54.690Z,1.20
2022-09-22T13:18:35.012Z,1.23
2022-09-22T13:21:13.785Z,1.37
2022-09-22T13:23:49.429Z,3.13
2022-09-22T13:26:16.408Z,2.30
2022-09-22T13:28:43.139Z,2.03
2022-09-22T13:31:14.499Z,1.67
2022-09-22T13:33:41.554Z,1.30
2022-09-22T13:36:08.254Z,0.90
2022-09-22T13:38:42.491Z,1.30
2022-09-22T13:41:13.688Z,1.40
2022-09-22T13:43:42.206Z,3.30
2022-09-22T13:46:17.147Z,1.17
2022-09-22T13:48:43.849Z,1.43
2022-09-22T13:51:13.263Z,1.40
2022-09-22T13:53:49.205Z,1.33
2022-09-22T13:56:21.608Z,1.20
2022-09-22T13:58:49.988Z,1.33
2022-09-22T14:01:21.358Z,1.60
2022-09-22T14:03:49.175Z,1.13
2022-09-22T14:06:26.436Z,1.33
2022-09-22T14:08:53.377Z,1.10
2022-09-22T14:11:23.360Z,1.10
2022-09-22T14:13:53.154Z,1.30
2022-09-22T14:16:22.959Z,1.00
2022-09-22T14:18:52.104Z,0.97
2022-09-22T14:21:19.183Z,1.30
2022-09-22T14:23:47.842Z,0.93
2022-09-22T14:26:24.475Z,0.90
2022-09-22T14:28:52.044Z,1.00
2022-09-22T14:31:21.889Z,1.07
2022-09-22T14:33:48.635Z,1.10
2022-09-22T14:36:17.507Z,0.80
2022-09-22T14:38:49.626Z,1.13
2022-09-22T14:41:24.119Z,0.80
2022-09-22T14:43:51.031Z,0.80
2022-09-22T14:46:33.987Z,0.97
2022-09-22T14:49:22.743Z,1.00
2022-09-22T14:51:49.422Z,1.00
2022-09-22T14:54:17.152Z,1.00
2022-09-22T14:56:44.342Z,1.10
2022-09-22T14:59:35.486Z,1.27
2022-09-22T15:02:21.646Z,1.20
2022-09-22T15:04:52.424Z,1.33
2022-09-22T15:07:25.978Z,1.20
2022-09-22T15:09:57.658Z,1.03
2022-09-22T15:12:33.171Z,1.40
2022-09-22T15:14:59.951Z,1.30
2022-09-22T15:17:56.021Z,2.10
2022-09-22T15:20:24.839Z,1.47
2022-09-22T15:22:53.950Z,1.43
2022-09-22T15:25:21.420Z,1.63
2022-09-22T15:27:53.447Z,1.10
2022-09-22T15:30:20.893Z,1.43
2022-09-22T15:32:48.250Z,1.00
2022-09-22T15:35:17.862Z,1.40
2022-09-22T15:37:49.659Z,1.40
2022-09-22T15:40:21.257Z,1.17
2022-09-22T15:43:09.066Z,1.47
2022-09-22T15:45:36.170Z,1.27
2022-09-22T15:48:02.849Z,0.90
2022-09-22T15:50:30.431Z,1.37
2022-09-22T15:52:57.051Z,1.20
2022-09-22T15:55:24.798Z,1.40
2022-09-22T15:57:54.778Z,1.13
2022-09-22T16:00:23.116Z,1.60
2022-09-22T16:02:49.796Z,1.33
2022-09-22T16:05:19.262Z,1.23
2022-09-22T16:07:47.817Z,1.20
2022-09-22T16:10:15.940Z,1.47
2022-09-22T16:12:42.556Z,1.33
2022-09-22T16:15:12.896Z,1.73
2022-09-22T16:17:43.083Z,1.10
2022-09-22T16:20:14.706Z,1.83
2022-09-22T16:22:41.678Z,1.87
2022-09-22T16:25:11.175Z,1.40
2022-09-22T16:27:38.311Z,1.10
2022-09-22T16:30:05.332Z,1.80
2022-09-22T16:32:36.112Z,1.30
2022-09-22T16:35:03.575Z,1.60
2022-09-22T16:37:30.255Z,1.40
2022-09-22T16:39:56.824Z,1.40
2022-09-22T16:42:23.969Z,1.40
2022-09-22T16:44:50.744Z,1.87
2022-09-22T16:47:22.947Z,1.50
2022-09-22T16:49:51.218Z,1.50
2022-09-22T16:52:21.129Z,1.10
2022-09-22T16:54:47.869Z,1.60
2022-09-22T16:57:14.464Z,1.97
2022-09-22T16:59:41.002Z,2.07
2022-09-22T17:02:09.075Z,1.87
2022-09-22T17:04:35.694Z,2.50
2022-09-22T17:07:02.316Z,1.73
2022-09-22T17:09:31.723Z,1.40
2022-09-22T17:11:58.404Z,2.63
2022-09-22T17:14:25.585Z,1.57
2022-09-22T17:16:53.513Z,1.93
2022-09-22T17:19:21.087Z,1.90
2022-09-22T17:21:51.964Z,1.07
2022-09-22T17:24:19.428Z,1.70
2022-09-22T17:26:47.866Z,1.93
2022-09-22T17:29:21.124Z,2.60
2022-09-22T17:31:48.233Z,1.60
2022-09-22T17:34:15.046Z,1.50
2022-09-22T17:36:41.764Z,1.60
2022-09-22T17:39:10.623Z,2.00
2022-09-22T17:41:44.340Z,3.27
2022-09-22T17:44:11.243Z,1.73
2022-09-22T17:46:57.912Z,1.97
2022-09-22T17:49:43.383Z,2.87
2022-09-22T17:52:28.607Z,3.20
2022-09-22T17:55:07.654Z,2.13
2022-09-22T17:57:36.630Z,3.10
2022-09-22T18:00:04.139Z,2.30
2022-09-22T18:02:36.591Z,1.83
2022-09-22T18:05:04.570Z,2.03
2022-09-22T18:07:35.136Z,2.10
2022-09-22T18:10:02.581Z,2.17
2022-09-22T18:12:29.499Z,2.97
2022-09-22T18:15:01.347Z,3.53
2022-09-22T18:17:28.505Z,2.23
2022-09-22T18:19:58.041Z,3.20
2022-09-22T18:22:25.667Z,2.73
2022-09-22T18:24:56.277Z,2.93
2022-09-22T18:27:24.984Z,2.80
2022-09-22T18:29:53.152Z,3.00
2022-09-22T18:32:20.374Z,3.30
2022-09-22T18:34:47.493Z,2.77
2022-09-22T18:37:15.671Z,3.80
2022-09-22T18:39:44.735Z,2.33
2022-09-22T18:42:12.534Z,2.67
2022-09-22T18:44:39.081Z,3.10
2022-09-22T18:47:07.944Z,3.50
2022-09-22T18:49:37.643Z,3.50
2022-09-22T18:52:07.101Z,3.00
2022-09-22T18:54:33.645Z,2.33
2022-09-22T18:57:03.526Z,2.80
2022-09-22T18:59:30.068Z,3.33
2022-09-22T19:01:57.178Z,4.30
2022-09-22T19:04:24.304Z,3.93
2022-09-22T19:07:10.922Z,3.30
2022-09-22T19:09:38.673Z,3.30
2022-09-22T19:12:07.835Z,2.87
2022-09-22T19:14:38.778Z,2.47
2022-09-22T19:17:07.069Z,3.07
2022-09-22T19:19:38.516Z,3.53
2022-09-22T19:22:09.153Z,2.20
2022-09-22T19:24:36.509Z,3.30
2022-09-22T19:27:04.640Z,3.00
2022-09-22T19:29:31.925Z,3.97
2022-09-22T19:31:59.345Z,3.70
2022-09-22T19:34:26.109Z,4.07
2022-09-22T19:36:52.729Z,3.30
2022-09-22T19:39:19.504Z,2.03
2022-09-22T19:41:48.276Z,2.93
2022-09-22T19:44:16.279Z,2.73
2022-09-22T19:46:43.423Z,2.20
2022-09-22T19:49:12.055Z,2.80
2022-09-22T19:51:39.792Z,3.20
2022-09-22T19:54:06.577Z,3.20
2022-09-22T19:56:33.224Z,2.20
2022-09-22T19:59:00.218Z,2.83
2022-09-22T20:01:31.547Z,3.47
2022-09-22T20:03:59.044Z,3.33
2022-09-22T20:06:26.731Z,3.53
2022-09-22T20:09:02.543Z,2.70
2022-09-22T20:11:33.626Z,3.00
2022-09-22T20:14:19.328Z,3.47
2022-09-22T20:16:47.113Z,3.10
2022-09-22T20:19:14.111Z,2.83
2022-09-22T20:21:42.094Z,4.37
2022-09-22T20:24:11.224Z,2.87
2022-09-22T20:26:37.753Z,4.00
2022-09-22T20:29:04.350Z,3.20
2022-09-22T20:31:31.149Z,3.40
2022-09-22T20:33:57.759Z,4.13
2022-09-22T20:36:24.594Z,3.93
2022-09-22T20:38:51.501Z,3.83
2022-09-22T20:41:22.103Z,3.43
2022-09-22T20:43:49.242Z,4.40
2022-09-22T20:46:16.409Z,3.83
2022-09-22T20:48:43.229Z,4.00
2022-09-22T20:51:09.813Z,4.10
2022-09-22T20:53:36.617Z,4.50
2022-09-22T20:56:04.694Z,5.10
2022-09-22T20:58:33.501Z,3.63
2022-09-22T21:01:00.652Z,3.60
2022-09-22T21:03:27.384Z,4.17
2022-09-22T21:05:58.695Z,4.20
2022-09-22T21:08:43.928Z,4.67
2022-09-22T21:11:14.804Z,4.07
2022-09-22T21:13:41.970Z,4.87
2022-09-22T21:16:08.987Z,4.37
2022-09-22T21:18:36.291Z,3.67
2022-09-22T21:21:03.976Z,4.73
2022-09-22T21:23:32.178Z,4.07
2022-09-22T21:26:04.085Z,3.67
2022-09-22T21:28:30.627Z,4.07
2022-09-22T21:30:58.147Z,4.87
2022-09-22T21:33:26.271Z,4.00
2022-09-22T21:36:08.537Z,4.70
2022-09-22T21:38:37.216Z,4.90
2022-09-22T21:41:05.520Z,4.37
2022-09-22T21:43:32.581Z,4.83
2022-09-22T21:46:04.841Z,3.63
2022-09-22T21:48:33.207Z,4.10
2022-09-22T21:51:01.372Z,5.47
2022-09-22T21:53:28.831Z,3.93
2022-09-22T21:55:59.473Z,3.77
2022-09-22T21:58:26.794Z,4.07
2022-09-22T22:00:53.641Z,3.00
2022-09-22T22:03:32.767Z,3.37
2022-09-22T22:06:07.658Z,2.90
2022-09-22T22:08:37.250Z,3.60
2022-09-22T22:11:08.285Z,3.20
2022-09-22T22:13:35.990Z,3.77
2022-09-22T22:16:03.463Z,4.23
2022-09-22T22:18:30.218Z,3.93
2022-09-22T22:20:58.072Z,3.90
2022-09-22T22:23:28.783Z,3.30
2022-09-22T22:26:00.906Z,3.10
2022-09-22T22:28:27.890Z,4.17
2022-09-22T22:30:54.730Z,3.87
2022-09-22T22:33:21.889Z,3.60
2022-09-22T22:35:49.365Z,4.07
2022-09-22T22:38:17.390Z,4.20
2022-09-22T22:40:46.296Z,4.77
2022-09-22T22:43:13.964Z,4.33
2022-09-22T22:45:47.349Z,4.10
2022-09-22T22:48:15.146Z,3.93
2022-09-22T22:50:42.306Z,4.60
2022-09-22T22:53:11.005Z,3.70
2022-09-22T22:55:37.956Z,4.13
2022-09-22T22:58:04.898Z,3.20
2022-09-22T23:00:32.732Z,4.07
2022-09-22T23:02:59.570Z,3.50
2022-09-22T23:05:26.613Z,4.17
2022-09-22T23:07:53.784Z,3.83
2022-09-22T23:10:21.126Z,3.80
2022-09-22T23:12:47.903Z,3.63
2022-09-22T23:15:14.492Z,4.03
2022-09-22T23:17:41.037Z,4.00
2022-09-22T23:20:09.883Z,4.10
2022-09-22T23:22:36.429Z,3.90
2022-09-22T23:25:03.055Z,3.90
2022-09-22T23:27:29.545Z,4.20
2022-09-22T23:29:57.142Z,3.90
2022-09-22T23:32:24.500Z,3.97
2022-09-22T23:34:51.002Z,3.40
2022-09-22T23:37:17.606Z,4.27
2022-09-22T23:39:45.282Z,4.03
2022-09-22T23:42:11.846Z,3.20
2022-09-22T23:44:38.366Z,3.60
2022-09-22T23:47:04.937Z,4.93
2022-09-22T23:49:32.388Z,4.23
2022-09-22T23:51:58.881Z,4.00
2022-09-22T23:54:25.394Z,4.67
2022-09-22T23:56:51.908Z,3.60
2022-09-22T23:59:18.616Z,3.73
